Aeroporto :







RITROVATECI SU...

 
LOGIN :

Iscrizione | Disclaimer

   EN    FR    IT 

 









Sommario :    VFR   VFR Marginale   IFR   IFR Intensivo   IFR Molto Intensivo
Visibilità : 
Base nubi : 
>= 8 km
>= 3000ft
5 / 8 km
1000 / 3000 ft
1500m / 5 km
500 / 1000 ft
800 / 1500m
200 / 500 ft
< 800m
< 200 ft
Simboli :   Temporali  Nebbia  Neve Forte  Precipitazioni Forti  Vento > 20 kt






- Altitudine del aeroporto : 522 ft
- Codice IATA : YBG


CYBG - CFB Bagotville

ULTIMO METAR :
  • 280600Z 31006KT 20SM FEW020 OVC025 M05/M08 A2969 RMK SC2SC6 SLP064

METARs OBSOLETI :
  • 280500Z 32006KT 15SM FEW020 OVC025 M05/M08 A2968 RMK SC1SC7 SLP061
  • 280400Z 32004KT 25SM BKN028 OVC040 M05/M07 A2966 RMK SC7SC1 SLP055

TAF TAF CYBG
Valido dal 28 a 06 ore il 29 a 06 ore UTC


280530Z 2806/2906 32005KT P6SM FEW020 BKN030
TEMPO 2806/2809 BKN020 OVC030
BECMG 2809/2811 28008KT
FM281600 28008KT P6SM SCT030
FM282100 28010KT P6SM SKC RMK NXT FCST BY 281200Z



MetMap, La meteo Aeronautica in un colpo d'occhio ! - Copyright ORBIFLY Dicembre 2007 - Disclaimer

ORBIFLY MET'MAP TEAM :

Programmazione e sviluppo : Alexandra Zaïnal
Concezione : Baudouin d'Aumeries
Aiuto per la programmazione : Marc-Olivier Méhu
Supporto tecnico e logistico : Manuel Goepfert
Aiuto per la traduzione : Arnaldo La Scala

Contatto : metmap@orbifly.com




FONTI E CREDITI :

   NOAA